createdAt,value
2018-07-02T00:00:54.877Z,90.60
2018-07-02T00:03:22.158Z,90.90
2018-07-02T00:06:01.208Z,90.60
2018-07-02T00:08:28.605Z,90.80
2018-07-02T00:10:56.051Z,91.40
2018-07-02T00:13:23.457Z,91.50
2018-07-02T00:15:50.842Z,91.10
2018-07-02T00:18:18.269Z,91.10
2018-07-02T00:20:45.685Z,91.20
2018-07-02T00:23:13.085Z,91.10
2018-07-02T00:25:40.551Z,91.40
2018-07-02T00:28:07.972Z,91.70
2018-07-02T00:30:35.395Z,91.60
2018-07-02T00:33:02.765Z,91.40
2018-07-02T00:35:30.131Z,91.30
2018-07-02T00:37:57.577Z,91.60
2018-07-02T00:40:25.081Z,91.60
2018-07-02T00:42:52.443Z,91.70
2018-07-02T00:45:19.754Z,91.60
2018-07-02T00:47:47.095Z,91.60
2018-07-02T00:50:14.432Z,91.80
2018-07-02T00:52:41.943Z,92.10
2018-07-02T00:55:09.440Z,92.10
2018-07-02T00:57:36.842Z,91.80
2018-07-02T01:00:16.472Z,91.80
2018-07-02T01:02:43.829Z,91.80
2018-07-02T01:05:11.786Z,91.80
2018-07-02T01:07:39.114Z,92.10
2018-07-02T01:10:06.608Z,92.00
2018-07-02T01:12:34.137Z,92.40
2018-07-02T01:15:01.627Z,92.20
2018-07-02T01:17:28.992Z,92.60
2018-07-02T01:19:56.454Z,92.80
2018-07-02T01:22:23.866Z,92.80
2018-07-02T01:24:51.364Z,92.70
2018-07-02T01:27:18.812Z,92.90
2018-07-02T01:29:46.266Z,92.80
2018-07-02T01:32:13.722Z,93.20
2018-07-02T01:34:41.160Z,93.80
2018-07-02T01:37:08.597Z,94.10
2018-07-02T01:39:35.988Z,94.30
2018-07-02T01:42:03.494Z,94.30
2018-07-02T01:46:58.334Z,94.40
2018-07-02T01:49:25.621Z,93.70
2018-07-02T01:51:53.273Z,94.20
2018-07-02T01:54:20.609Z,94.20
2018-07-02T01:56:48.038Z,94.30
2018-07-02T01:59:15.583Z,94.40
2018-07-02T02:01:43.065Z,94.30
2018-07-02T02:04:10.357Z,94.20
2018-07-02T02:06:37.813Z,94.20
2018-07-02T02:09:07.359Z,94.40
2018-07-02T02:11:34.789Z,94.50
2018-07-02T02:14:02.223Z,94.90
2018-07-02T02:16:29.780Z,95.00
2018-07-02T02:18:57.241Z,94.70
2018-07-02T02:21:24.690Z,94.30
2018-07-02T02:23:52.095Z,94.20
2018-07-02T02:26:19.379Z,94.20
2018-07-02T02:28:46.667Z,94.20
2018-07-02T02:31:14.021Z,94.50
2018-07-02T02:33:41.398Z,94.90
2018-07-02T02:36:08.865Z,94.90
2018-07-02T02:38:36.176Z,95.00
2018-07-02T02:41:03.693Z,95.00
2018-07-02T02:43:31.073Z,95.10
2018-07-02T02:45:58.463Z,95.00
2018-07-02T02:48:25.839Z,95.20
2018-07-02T02:50:53.188Z,95.30
2018-07-02T02:53:20.517Z,95.20
2018-07-02T02:55:47.875Z,95.20
2018-07-02T02:58:15.313Z,94.90
2018-07-02T03:00:42.757Z,95.10
2018-07-02T03:03:10.109Z,95.20
2018-07-02T03:05:37.478Z,95.60
2018-07-02T03:08:04.898Z,95.90
2018-07-02T03:10:32.350Z,95.90
2018-07-02T03:12:59.698Z,95.40
2018-07-02T03:15:27.149Z,95.90
2018-07-02T03:17:54.459Z,96.10
2018-07-02T03:20:21.949Z,96.50
2018-07-02T03:22:49.253Z,96.80
2018-07-02T03:25:16.659Z,96.40
2018-07-02T03:27:43.985Z,96.40
2018-07-02T03:30:11.285Z,96.30
2018-07-02T03:32:38.731Z,96.90
2018-07-02T03:35:06.195Z,96.60
2018-07-02T03:37:33.589Z,96.50
2018-07-02T03:40:00.963Z,96.50
2018-07-02T03:42:28.377Z,96.90
2018-07-02T03:44:55.766Z,97.00
2018-07-02T03:47:23.210Z,97.40
2018-07-02T03:49:50.563Z,97.40
2018-07-02T03:52:17.993Z,98.20
2018-07-02T03:54:45.441Z,97.90
2018-07-02T03:57:12.886Z,97.40
2018-07-02T03:59:40.320Z,97.90
2018-07-02T04:02:07.805Z,98.10
2018-07-02T04:04:35.256Z,98.10
2018-07-02T04:07:02.655Z,98.20
2018-07-02T04:09:30.103Z,98.40
2018-07-02T04:11:57.467Z,99.10
2018-07-02T04:14:24.810Z,99.30
2018-07-02T04:16:52.208Z,99.30
2018-07-02T04:19:19.563Z,99.80
2018-07-02T04:21:46.896Z,99.20
2018-07-02T04:24:14.314Z,99.00
2018-07-02T04:26:41.856Z,98.60
2018-07-02T04:29:09.708Z,98.60
2018-07-02T04:31:41.845Z,98.80
2018-07-02T04:34:11.194Z,98.60
2018-07-02T04:36:38.628Z,99.20
2018-07-02T04:39:07.454Z,98.70
2018-07-02T04:41:35.156Z,98.90
2018-07-02T04:44:02.555Z,99.20
2018-07-02T04:46:29.910Z,99.20
2018-07-02T04:48:57.388Z,99.40
2018-07-02T04:51:24.850Z,99.80
2018-07-02T04:53:52.140Z,98.80
2018-07-02T04:56:19.626Z,98.20
2018-07-02T04:58:47.038Z,97.50
2018-07-02T05:01:14.535Z,96.80
2018-07-02T05:03:41.848Z,97.70
2018-07-02T05:06:09.179Z,97.50
2018-07-02T05:08:36.896Z,97.20
2018-07-02T05:11:04.502Z,97.90
2018-07-02T05:13:31.894Z,97.20
2018-07-02T05:15:59.227Z,96.50
2018-07-02T05:18:26.659Z,96.60
2018-07-02T05:20:54.065Z,95.70
2018-07-02T05:23:21.448Z,94.90
2018-07-02T05:25:48.822Z,94.60
2018-07-02T05:28:16.240Z,95.10
2018-07-02T05:30:43.598Z,94.70
2018-07-02T05:33:11.034Z,95.10
2018-07-02T05:35:38.470Z,96.70
2018-07-02T05:38:05.962Z,97.50
2018-07-02T05:40:33.371Z,96.80
2018-07-02T05:43:00.875Z,96.40
2018-07-02T05:45:28.262Z,95.50
2018-07-02T05:47:55.678Z,96.70
2018-07-02T05:50:23.055Z,94.50
2018-07-02T05:52:51.145Z,95.70
2018-07-02T05:55:23.070Z,94.40
2018-07-02T05:57:50.414Z,94.60
2018-07-02T06:00:17.923Z,95.30
2018-07-02T06:02:45.262Z,93.90
2018-07-02T06:05:12.582Z,93.70
2018-07-02T06:07:40.061Z,92.70
2018-07-02T06:10:07.563Z,92.70
2018-07-02T06:12:35.021Z,93.90
2018-07-02T06:15:02.514Z,93.60
2018-07-02T06:17:29.936Z,93.90
2018-07-02T06:19:57.345Z,92.70
2018-07-02T06:22:24.865Z,93.80
2018-07-02T06:24:52.397Z,93.00
2018-07-02T06:27:20.582Z,93.70
2018-07-02T06:29:48.025Z,93.10
2018-07-02T06:32:15.383Z,92.80
2018-07-02T06:34:42.737Z,92.00
2018-07-02T06:37:10.089Z,92.60
2018-07-02T06:39:37.550Z,90.70
2018-07-02T06:42:05.020Z,91.40
2018-07-02T06:44:32.333Z,91.20
2018-07-02T06:46:59.757Z,89.50
2018-07-02T06:49:27.211Z,88.90
2018-07-02T06:51:54.676Z,88.60
2018-07-02T06:54:22.125Z,90.70
2018-07-02T06:56:50.151Z,90.70
2018-07-02T06:59:17.607Z,90.10
2018-07-02T07:01:44.999Z,90.40
2018-07-02T07:04:12.947Z,90.50
2018-07-02T07:06:40.585Z,89.10
2018-07-02T07:09:09.431Z,90.10
2018-07-02T07:11:36.885Z,89.20
2018-07-02T07:14:04.575Z,88.20
2018-07-02T07:18:59.279Z,88.30
2018-07-02T07:21:26.726Z,86.80
2018-07-02T07:23:54.129Z,87.00
2018-07-02T07:26:21.592Z,85.30
2018-07-02T07:28:49.048Z,86.30
2018-07-02T07:31:16.512Z,85.60
2018-07-02T07:33:43.802Z,86.70
2018-07-02T07:36:11.251Z,84.40
2018-07-02T07:38:38.706Z,83.90
2018-07-02T07:41:06.121Z,84.10
2018-07-02T07:43:33.584Z,83.20
2018-07-02T07:46:00.971Z,85.10
2018-07-02T07:48:28.855Z,86.00
2018-07-02T07:50:56.272Z,85.30
2018-07-02T07:53:23.715Z,84.80
2018-07-02T07:55:51.052Z,83.80
2018-07-02T07:58:18.478Z,84.00
2018-07-02T08:00:45.879Z,83.80
2018-07-02T08:03:13.268Z,84.30
2018-07-02T08:05:40.742Z,85.00
2018-07-02T08:08:08.153Z,85.30
2018-07-02T08:10:35.708Z,83.40
2018-07-02T08:13:03.001Z,82.30
2018-07-02T08:15:30.404Z,82.70
2018-07-02T08:17:57.798Z,82.70
2018-07-02T08:20:25.206Z,81.30
2018-07-02T08:22:52.925Z,83.60
2018-07-02T08:25:20.370Z,80.90
2018-07-02T08:27:47.818Z,81.50
2018-07-02T08:30:15.189Z,82.60
2018-07-02T08:32:42.546Z,82.40
2018-07-02T08:35:09.964Z,82.00
2018-07-02T08:37:37.465Z,79.90
2018-07-02T08:40:04.946Z,81.30
2018-07-02T08:42:32.325Z,81.90
2018-07-02T08:47:27.361Z,83.40
2018-07-02T08:49:54.777Z,79.80
2018-07-02T08:52:22.188Z,79.80
2018-07-02T08:54:49.533Z,80.20
2018-07-02T08:57:16.970Z,80.70
2018-07-02T08:59:44.373Z,78.50
2018-07-02T09:02:11.735Z,82.50
2018-07-02T09:04:39.167Z,81.20
2018-07-02T09:07:06.561Z,78.50
2018-07-02T09:09:33.964Z,80.90
2018-07-02T09:12:01.421Z,79.70
2018-07-02T09:14:28.747Z,79.30
2018-07-02T09:16:56.188Z,80.70
2018-07-02T09:19:23.608Z,80.20
2018-07-02T09:21:51.097Z,80.00
2018-07-02T09:24:18.463Z,78.90
2018-07-02T09:26:45.810Z,78.40
2018-07-02T09:29:13.162Z,80.40
2018-07-02T09:31:40.542Z,80.70
2018-07-02T09:34:07.849Z,78.70
2018-07-02T09:36:35.211Z,78.70
2018-07-02T09:39:03.873Z,79.50
2018-07-02T09:41:31.139Z,81.90
2018-07-02T09:43:58.498Z,78.30
2018-07-02T09:46:25.867Z,77.30
2018-07-02T09:48:53.249Z,78.60
2018-07-02T09:51:20.645Z,78.10
2018-07-02T09:53:47.975Z,78.50
2018-07-02T09:56:15.332Z,76.30
2018-07-02T10:01:10.023Z,78.50
2018-07-02T10:03:37.360Z,75.70
2018-07-02T10:06:04.726Z,75.80
2018-07-02T10:08:32.064Z,75.50
2018-07-02T10:10:59.452Z,75.50
2018-07-02T10:13:26.868Z,77.30
2018-07-02T10:15:54.354Z,78.00
2018-07-02T10:18:21.725Z,77.90
2018-07-02T10:20:49.185Z,78.20
2018-07-02T10:23:16.717Z,75.20
2018-07-02T10:25:44.068Z,77.00
2018-07-02T10:28:11.514Z,76.60
2018-07-02T10:30:38.917Z,74.30
2018-07-02T10:33:06.307Z,75.40
2018-07-02T10:35:33.762Z,74.60
2018-07-02T10:38:01.239Z,75.60
2018-07-02T10:40:28.725Z,76.00
2018-07-02T10:42:56.297Z,74.30
2018-07-02T10:45:23.707Z,73.90
2018-07-02T10:47:51.233Z,76.00
2018-07-02T10:50:18.574Z,75.50
2018-07-02T10:52:45.947Z,73.20
2018-07-02T10:55:13.416Z,75.40
2018-07-02T10:57:40.873Z,74.30
2018-07-02T11:00:08.326Z,77.80
2018-07-02T11:02:35.788Z,73.20
2018-07-02T11:05:03.276Z,73.00
2018-07-02T11:07:30.717Z,73.40
2018-07-02T11:09:58.139Z,70.60
2018-07-02T11:12:25.521Z,71.80
2018-07-02T11:14:52.949Z,73.00
2018-07-02T11:17:20.299Z,77.30
2018-07-02T11:19:47.709Z,70.60
2018-07-02T11:22:15.160Z,71.90
2018-07-02T11:24:42.593Z,68.70
2018-07-02T11:27:10.013Z,70.90
2018-07-02T11:29:37.522Z,68.80
2018-07-02T11:32:04.994Z,69.70
2018-07-02T11:34:32.379Z,71.10
2018-07-02T11:36:59.884Z,69.60
2018-07-02T11:39:27.282Z,69.30
2018-07-02T11:41:54.615Z,66.80
2018-07-02T11:44:22.131Z,68.80
2018-07-02T11:46:49.597Z,68.10
2018-07-02T11:49:17.741Z,69.00
2018-07-02T11:54:13.021Z,68.80
2018-07-02T11:56:40.413Z,72.00
2018-07-02T11:59:07.784Z,70.60
2018-07-02T12:01:35.149Z,66.30
2018-07-02T12:04:02.616Z,66.60
2018-07-02T12:06:30.050Z,71.90
2018-07-02T12:08:57.518Z,67.90
2018-07-02T12:11:24.900Z,72.40
2018-07-02T12:13:52.638Z,67.30
2018-07-02T12:16:20.026Z,67.60
2018-07-02T12:18:47.447Z,68.70
2018-07-02T12:21:15.482Z,67.10
2018-07-02T12:23:42.914Z,65.30
2018-07-02T12:26:10.333Z,66.50
2018-07-02T12:31:05.257Z,66.90
2018-07-02T12:33:32.654Z,64.70
2018-07-02T12:35:59.917Z,69.60
2018-07-02T12:38:30.714Z,68.40
2018-07-02T12:40:58.093Z,69.90
2018-07-02T12:43:26.240Z,65.10
2018-07-02T12:45:53.750Z,65.70
2018-07-02T12:50:48.500Z,64.20
2018-07-02T12:53:16.779Z,63.90
2018-07-02T12:55:44.113Z,65.60
2018-07-02T12:58:11.573Z,71.00
2018-07-02T13:00:39.869Z,64.00
2018-07-02T13:03:07.292Z,67.20
2018-07-02T13:05:34.724Z,67.00
2018-07-02T13:08:02.173Z,66.80
2018-07-02T13:10:29.599Z,64.40
2018-07-02T13:12:57.930Z,63.60
2018-07-02T13:17:53.267Z,66.70
2018-07-02T13:20:20.740Z,63.60
2018-07-02T13:22:48.238Z,64.90
2018-07-02T13:25:15.640Z,64.80
2018-07-02T13:27:42.991Z,62.50
2018-07-02T13:30:10.505Z,62.20
2018-07-02T13:32:38.037Z,63.00
2018-07-02T13:37:33.812Z,60.70
2018-07-02T13:40:01.313Z,63.60
2018-07-02T13:44:56.155Z,63.60
2018-07-02T13:47:23.509Z,65.70
2018-07-02T13:49:51.036Z,65.90
2018-07-02T13:52:18.450Z,65.20
2018-07-02T13:54:45.874Z,66.50
2018-07-02T13:57:13.982Z,62.30
2018-07-02T13:59:41.363Z,65.30
2018-07-02T14:02:08.988Z,62.80
2018-07-02T14:04:36.342Z,65.40
2018-07-02T14:07:03.896Z,66.10
2018-07-02T14:09:32.014Z,65.10
2018-07-02T14:11:59.418Z,62.60
2018-07-02T14:14:26.883Z,64.50
2018-07-02T14:16:54.257Z,62.70
2018-07-02T14:19:21.646Z,63.70
2018-07-02T14:24:16.486Z,60.60
2018-07-02T14:26:43.869Z,62.10
2018-07-02T14:29:11.330Z,61.80
2018-07-02T14:31:38.850Z,61.30
2018-07-02T14:34:06.410Z,61.80
2018-07-02T14:36:33.964Z,60.40
2018-07-02T14:39:01.378Z,61.10
2018-07-02T14:41:28.790Z,60.50
2018-07-02T14:43:56.174Z,59.80
2018-07-02T14:46:23.530Z,58.20
2018-07-02T14:48:50.989Z,60.20
2018-07-02T14:51:18.398Z,58.70
2018-07-02T14:53:45.781Z,58.50
2018-07-02T14:56:13.142Z,58.50
2018-07-02T14:58:40.600Z,59.40
2018-07-02T15:01:08.090Z,58.60
2018-07-02T15:06:02.845Z,59.30
2018-07-02T15:08:30.213Z,59.20
2018-07-02T15:10:57.686Z,63.80
2018-07-02T15:13:25.100Z,63.50
2018-07-02T15:15:52.523Z,62.30
2018-07-02T15:18:19.923Z,59.30
2018-07-02T15:20:47.721Z,63.50
2018-07-02T15:23:15.343Z,62.40
2018-07-02T15:25:42.804Z,61.50
2018-07-02T15:28:10.470Z,59.70
2018-07-02T15:30:37.803Z,64.20
2018-07-02T15:33:05.365Z,62.80
2018-07-02T15:35:32.859Z,63.20
2018-07-02T15:38:00.273Z,61.90
2018-07-02T15:40:27.779Z,58.60
2018-07-02T15:42:55.335Z,61.40
2018-07-02T15:45:22.714Z,62.80
2018-07-02T15:47:50.151Z,65.00
2018-07-02T15:50:17.555Z,64.30
2018-07-02T15:52:45.013Z,64.60
2018-07-02T15:55:12.565Z,66.90
2018-07-02T15:57:39.976Z,65.40
2018-07-02T16:00:07.399Z,64.00
2018-07-02T16:02:34.742Z,66.00
2018-07-02T16:05:02.437Z,64.30
2018-07-02T16:07:29.901Z,65.60
2018-07-02T16:09:57.319Z,67.20
2018-07-02T16:12:24.741Z,63.60
2018-07-02T16:14:52.139Z,63.20
2018-07-02T16:17:19.631Z,61.50
2018-07-02T16:19:47.207Z,61.90
2018-07-02T16:22:14.625Z,62.50
2018-07-02T16:24:42.100Z,62.90
2018-07-02T16:27:09.578Z,64.20
2018-07-02T16:29:37.041Z,64.10
2018-07-02T16:32:04.459Z,65.10
2018-07-02T16:34:31.880Z,65.90
2018-07-02T16:36:59.447Z,69.60
2018-07-02T16:39:26.810Z,69.00
2018-07-02T16:41:54.354Z,64.00
2018-07-02T16:44:21.816Z,64.20
2018-07-02T16:46:49.294Z,64.20
2018-07-02T16:49:16.659Z,63.90
2018-07-02T16:51:44.027Z,63.60
2018-07-02T16:54:11.782Z,64.40
2018-07-02T16:56:39.205Z,66.00
2018-07-02T16:59:06.758Z,64.70
2018-07-02T17:01:34.131Z,65.20
2018-07-02T17:04:02.757Z,66.30
2018-07-02T17:06:30.258Z,63.20
2018-07-02T17:08:57.680Z,66.20
2018-07-02T17:11:25.003Z,64.70
2018-07-02T17:13:52.750Z,65.20
2018-07-02T17:16:21.266Z,64.40
2018-07-02T17:18:48.731Z,65.20
2018-07-02T17:21:16.184Z,66.80
2018-07-02T17:23:43.546Z,65.50
2018-07-02T17:26:11.717Z,65.50
2018-07-02T17:28:39.779Z,64.50
2018-07-02T17:31:07.322Z,66.20
2018-07-02T17:33:34.680Z,63.30
2018-07-02T17:36:02.157Z,67.20
2018-07-02T17:38:29.483Z,66.20
2018-07-02T17:40:57.682Z,66.20
2018-07-02T17:43:25.091Z,66.20
2018-07-02T17:45:52.630Z,65.60
2018-07-02T17:48:21.644Z,66.00
2018-07-02T17:50:49.107Z,65.00
2018-07-02T17:53:16.623Z,66.60
2018-07-02T17:55:44.011Z,66.20
2018-07-02T17:58:11.505Z,66.30
2018-07-02T18:00:38.994Z,68.30
2018-07-02T18:03:06.456Z,66.90
2018-07-02T18:05:33.832Z,66.00
2018-07-02T18:08:01.471Z,66.80
2018-07-02T18:10:29.001Z,68.60
2018-07-02T18:12:56.526Z,68.20
2018-07-02T18:15:23.996Z,68.90
2018-07-02T18:17:51.439Z,68.70
2018-07-02T18:20:18.836Z,68.80
2018-07-02T18:22:46.279Z,69.10
2018-07-02T18:25:13.786Z,69.70
2018-07-02T18:27:41.377Z,69.10
2018-07-02T18:30:09.572Z,69.10
2018-07-02T18:32:38.488Z,68.90
2018-07-02T18:35:06.660Z,70.20
2018-07-02T18:37:34.919Z,69.90
2018-07-02T18:40:02.907Z,69.40
2018-07-02T18:42:32.459Z,69.80
2018-07-02T18:45:01.755Z,70.70
2018-07-02T18:47:30.057Z,69.90
2018-07-02T18:49:58.213Z,70.70
2018-07-02T18:52:26.680Z,72.20
2018-07-02T18:54:54.075Z,71.60
2018-07-02T18:57:21.546Z,71.00
2018-07-02T18:59:48.980Z,72.20
2018-07-02T19:02:17.425Z,73.50
2018-07-02T19:04:45.801Z,76.30
2018-07-02T19:09:41.026Z,75.60
2018-07-02T19:12:08.782Z,74.70
2018-07-02T19:14:36.963Z,77.30
2018-07-02T19:17:05.498Z,76.30
2018-07-02T19:19:35.399Z,76.50
2018-07-02T19:22:03.015Z,76.00
2018-07-02T19:24:30.454Z,75.30
2018-07-02T19:27:01.345Z,76.20
2018-07-02T19:29:28.982Z,76.10
2018-07-02T19:31:56.415Z,76.20
2018-07-02T19:34:23.947Z,75.60
2018-07-02T19:36:52.685Z,76.60
2018-07-02T19:39:20.205Z,76.00
2018-07-02T19:41:47.902Z,76.10
2018-07-02T19:44:16.097Z,76.60
2018-07-02T19:46:43.564Z,80.20
2018-07-02T19:49:11.157Z,78.50
2018-07-02T19:51:38.571Z,77.80
2018-07-02T19:54:06.207Z,77.80
2018-07-02T19:56:33.759Z,77.40
2018-07-02T19:59:01.203Z,76.70
2018-07-02T20:01:28.780Z,76.20
2018-07-02T20:03:57.259Z,76.90
2018-07-02T20:06:25.740Z,76.50
2018-07-02T20:08:53.282Z,76.90
2018-07-02T20:11:20.776Z,76.50
2018-07-02T20:13:48.148Z,77.70
2018-07-02T20:16:16.574Z,76.50
2018-07-02T20:18:44.052Z,76.70
2018-07-02T20:21:11.561Z,76.50
2018-07-02T20:23:38.910Z,75.00
2018-07-02T20:26:06.782Z,76.80
2018-07-02T20:28:34.113Z,78.30
2018-07-02T20:31:01.639Z,78.20
2018-07-02T20:33:29.470Z,78.10
2018-07-02T20:35:58.032Z,76.90
2018-07-02T20:38:25.680Z,77.50
2018-07-02T20:40:54.078Z,77.70
2018-07-02T20:43:21.495Z,77.80
2018-07-02T20:45:49.043Z,75.90
2018-07-02T20:48:16.494Z,78.40
2018-07-02T20:50:43.866Z,77.50
2018-07-02T20:53:11.358Z,78.60
2018-07-02T20:55:39.136Z,77.70
2018-07-02T20:58:06.686Z,78.10
2018-07-02T21:00:34.160Z,78.70
2018-07-02T21:03:02.675Z,78.60
2018-07-02T21:05:30.547Z,79.40
2018-07-02T21:07:58.117Z,79.50
2018-07-02T21:10:25.689Z,79.30
2018-07-02T21:12:53.209Z,78.70
2018-07-02T21:15:21.154Z,79.10
2018-07-02T21:17:48.622Z,78.60
2018-07-02T21:20:16.052Z,78.10
2018-07-02T21:22:45.126Z,79.70
2018-07-02T21:25:13.318Z,79.00
2018-07-02T21:27:40.786Z,80.70
2018-07-02T21:30:09.077Z,81.80
2018-07-02T21:32:37.109Z,81.70
2018-07-02T21:35:04.730Z,80.40
2018-07-02T21:37:32.202Z,80.90
2018-07-02T21:40:00.290Z,81.90
2018-07-02T21:42:27.832Z,81.80
2018-07-02T21:44:55.259Z,82.60
2018-07-02T21:47:23.783Z,84.30
2018-07-02T21:49:51.200Z,83.30
2018-07-02T21:52:19.486Z,84.80
2018-07-02T21:54:46.952Z,84.00
2018-07-02T21:57:14.277Z,85.10
2018-07-02T21:59:41.844Z,85.20
2018-07-02T22:02:09.377Z,85.50
2018-07-02T22:04:36.690Z,85.50
2018-07-02T22:07:04.358Z,85.90
2018-07-02T22:09:31.880Z,84.60
2018-07-02T22:11:59.293Z,85.40
2018-07-02T22:14:26.641Z,84.60
2018-07-02T22:16:54.158Z,83.30
2018-07-02T22:19:21.582Z,82.40
2018-07-02T22:21:48.964Z,82.90
2018-07-02T22:24:16.452Z,82.40
2018-07-02T22:26:43.869Z,82.70
2018-07-02T22:29:11.263Z,81.90
2018-07-02T22:31:38.647Z,82.80
2018-07-02T22:34:05.997Z,82.50
2018-07-02T22:36:33.351Z,82.60
2018-07-02T22:39:00.767Z,83.60
2018-07-02T22:41:28.593Z,83.30
2018-07-02T22:43:56.505Z,83.90
2018-07-02T22:46:23.982Z,84.10
2018-07-02T22:48:51.398Z,83.40
2018-07-02T22:51:18.880Z,83.80
2018-07-02T22:53:46.325Z,85.30
2018-07-02T22:56:13.786Z,86.00
2018-07-02T22:58:41.247Z,87.30
2018-07-02T23:01:08.581Z,87.20
2018-07-02T23:03:35.948Z,86.90
2018-07-02T23:06:03.338Z,87.70
2018-07-02T23:08:30.826Z,87.50
2018-07-02T23:10:58.270Z,87.10
2018-07-02T23:13:25.914Z,87.70
2018-07-02T23:15:59.185Z,88.10
2018-07-02T23:18:26.542Z,87.70
2018-07-02T23:20:53.912Z,87.10
2018-07-02T23:23:21.278Z,85.90
2018-07-02T23:25:48.603Z,87.10
2018-07-02T23:28:16.001Z,86.20
2018-07-02T23:30:43.391Z,86.60
2018-07-02T23:33:10.722Z,87.00
2018-07-02T23:35:38.058Z,87.10
2018-07-02T23:38:05.396Z,87.40
2018-07-02T23:40:32.846Z,88.00
2018-07-02T23:43:00.250Z,88.40
2018-07-02T23:47:54.969Z,89.10
2018-07-02T23:50:22.364Z,88.80
2018-07-02T23:52:49.804Z,89.80
2018-07-02T23:55:17.281Z,88.80
2018-07-02T23:57:44.700Z,88.10
